This demonstration page uses our WeatherBlox Daily Observations layout. Learn more.

38.88101, -77.10428

Hourly Observations for October 5, 2020

Temp ( °F °C ) Dew Point ( °F °C ) Humidity (%) Winds ( mph kmh ) Pressure ( in mb ) Visibility ( mi km ) Precip ( " mm )
12:52 am 00:52 Mostly Cloudy 60 15.6 52 11.1 75 75 Calm 30.09 1019 10 16.0934 0 0
1:52 am 01:52 Partly Cloudy 57 13.9 51 10.6 81 81 WSW 5 7 30.09 1019 10 16.0934 0 0
2:52 am 02:52 Mostly Cloudy 58 14.4 50 10 75 75 WNW 5 7 30.1 1019 10 16.0934 0 0
3:52 am 03:52 Cloudy 58 14.4 50 10 75 75 WNW 7 11 30.1 1019 10 16.0934 0 0
4:52 am 04:52 Cloudy with Light Rain 57 13.9 53 11.7 87 87 N 5 7 30.1 1019 10 16.0934 0.01 0.254
5:52 am 05:52 Mostly Cloudy 57 13.9 53 11.7 87 87 NNW 7 11 30.12 1020 10 16.0934 0.01 0.254
6:52 am 06:52 Mostly Clear 55 12.8 51 10.6 87 87 N 6 9 30.13 1020 10 16.0934 0 0
7:52 am 07:52 Mostly Sunny 57 13.9 51 10.6 81 81 NW 8 13 30.15 1021 10 16.0934 0 0
8:52 am 08:52 Mostly Sunny 59 15 51 10.6 75 75 NW 14 22 30.18 1022 10 16.0934 0 0
9:52 am 09:52 Mostly Sunny 60 15.6 50 10 70 70 NW 16 26 30.19 1023 10 16.0934 0 0
10:52 am 10:52 Mostly Sunny 63 17.2 49 9.4 60 60 NNW 17 28 30.2 1023 10 16.0934 0 0
11:52 am 11:52 Mostly Sunny 66 18.9 49 9.4 54 54 NW 15 24 30.2 1023 10 16.0934 0 0
12:52 pm 12:52 Partly Cloudy 68 20 48 8.9 49 49 NNW 14 22 30.19 1023 10 16.0934 0 0
1:52 pm 13:52 Partly Cloudy 68 20 47 8.3 47 47 NNW 15 24 30.18 1022 10 16.0934 0 0
2:52 pm 14:52 Partly Cloudy 66 18.9 44 6.7 45 45 NW 10 17 30.17 1022 10 16.0934 0 0
3:52 pm 15:52 Partly Cloudy 69 20.6 45 7.2 42 42 W 9 15 30.16 1021 10 16.0934 0 0
4:52 pm 16:52 Mostly Cloudy 67 19.4 44 6.7 44 44 NW 9 15 30.16 1021 10 16.0934 0 0
5:52 pm 17:52 Mostly Cloudy 65 18.3 45 7.2 49 49 WNW 7 11 30.17 1022 10 16.0934 0 0
6:52 pm 18:52 Mostly Cloudy 64 17.8 45 7.2 50 50 WNW 6 9 30.18 1022 10 16.0934 0 0
7:52 pm 19:52 Cloudy 64 17.8 45 7.2 50 50 W 5 7 30.19 1023 10 16.0934 0 0
8:52 pm 20:52 Cloudy 63 17.2 45 7.2 52 52 Calm 30.21 1023 10 16.0934 0 0
9:52 pm 21:52 Clear 61 16.1 47 8.3 60 60 Calm 30.21 1023 10 16.0934 0 0
10:52 pm 22:52 Mostly Clear 59 15 46 7.8 62 62 WNW 5 7 30.21 1023 10 16.0934 0 0
11:52 pm 23:52 Mostly Clear 56 13.3 47 8.3 72 72 NW 6 9 30.2 1023 10 16.0934 0 0

Powered by AerisWeather